Powell, WY (82435)

09:05 PM MDT die 31o March, anno 2015 (GMT -0600)
Crestview Estates | | Change Station
CLOSE
Current Station
Personal Weather Stations
Location: Powell, WY
Elevation: 4507 ft
Nearby Weather Stations

Elev 4507 ft 44.75 °N, 108.82 °W | Updated 19 seconds ago

Serena
Serena
59.7 °F
Feels Like 59.7 °F
N
17.3
Ventus Variabilis Ventus from Zephyrus
Gusts 17.3 mph

Hodie
High -- | Low -- °F
--% Chance of Precip.
Yesterday
High -- | Low -- °F
Precip. -- in
6:58 AM 7:41 PM
Waxing Gibbous, 90% visible
Pressio 29.66 in
Visibilitas 10.0 milia passuum
Clouds Serena
Frigus in quo Ros apparet 22 °F
Umor 23%
Rainfall 0.13 in
Snow Depth Not available.
UV 0 out of 12
Pollen 7.30 out of 12
Air Quality Not available.
Flu Activity Not available.
METAR KCOD 010235Z 25009G14KT 10SM CLR 16/M06 A2966 RMK AO1

More Conditions Fewer Conditions

Pressio 29.66 in
Visibilitas 10.0 milia passuum
Clouds Serena
Frigus in quo Ros apparet 22 °F
Umor 23%
Rainfall 0.13 in
Snow Depth Not available.
UV 0 out of 12
Pollen 7.30 out of 12
Air Quality Not available.
Flu Activity Not available.
METAR KCOD 010235Z 25009G14KT 10SM CLR 16/M06 A2966 RMK AO1

More Conditions Fewer Conditions

10-Day Weather Forecast

Almanac

Astronomy

Mar. 31, 2015 Rise Set
Actual Time
Civil Twilight
Nautical Twilight
Astronomical Twilight
Moon
Length Of Visible Light
Length of Day
Tomorrow will be .
, % of the Moon is Illuminated

Today's Extremes

State Highs State Lows

Community

WunderPhotos

Upload Photos

1,809,888 photos uploaded!

WunderBlogs® & News

Nearby

Air Quality

  Air Quality AQ Index Pollutant
Not available.

Snow Depth

Station Depth Elevation

Earthquake Activity

City Distance Mag. Time & Date
Minimum magnitude displayed is 2.5.

Coastal Water Temperatures

Locus Calor

Stations

Nearby Weather Stations

Station Location Temp Frigus Venti Frigus in quo Ros apparet Umor Ventus Precip. Elev Renovata Type